sensor_id;sensor_type;location;lat;lon;timestamp;P1;durP1;ratioP1;P2;durP2;ratioP2
78013;SDS011;67222;50.182;8.734;2023-06-04T05:32:26;4.28;;;1.42;;
78013;SDS011;67222;50.182;8.734;2023-06-04T05:34:53;3.22;;;1.20;;
78013;SDS011;67222;50.182;8.734;2023-06-04T05:37:21;3.70;;;1.75;;
78013;SDS011;67222;50.182;8.734;2023-06-04T05:39:48;2.90;;;1.38;;
78013;SDS011;67222;50.182;8.734;2023-06-04T05:42:14;3.30;;;1.20;;
78013;SDS011;67222;50.182;8.734;2023-06-04T05:44:40;3.60;;;1.30;;
78013;SDS011;67222;50.182;8.734;2023-06-04T05:47:05;3.35;;;1.58;;
78013;SDS011;67222;50.182;8.734;2023-06-04T05:49:31;2.20;;;1.30;;
78013;SDS011;67222;50.182;8.734;2023-06-04T05:51:58;4.20;;;1.20;;
78013;SDS011;67222;50.182;8.734;2023-06-04T05:54:24;3.30;;;1.50;;
78013;SDS011;67222;50.182;8.734;2023-06-04T05:56:49;2.60;;;1.30;;
78013;SDS011;67222;50.182;8.734;2023-06-04T05:59:14;4.07;;;1.40;;
78013;SDS011;67222;50.182;8.734;2023-06-04T06:01:40;2.50;;;1.10;;
78013;SDS011;67222;50.182;8.734;2023-06-04T06:04:05;4.47;;;1.43;;
78013;SDS011;67222;50.182;8.734;2023-06-04T06:06:30;4.03;;;1.30;;
78013;SDS011;67222;50.182;8.734;2023-06-04T06:08:56;4.47;;;1.35;;
78013;SDS011;67222;50.182;8.734;2023-06-04T06:11:23;3.88;;;1.45;;
78013;SDS011;67222;50.182;8.734;2023-06-04T06:13:48;3.37;;;1.10;;
78013;SDS011;67222;50.182;8.734;2023-06-04T06:16:13;3.33;;;1.13;;
78013;SDS011;67222;50.182;8.734;2023-06-04T06:18:39;3.85;;;1.30;;
78013;SDS011;67222;50.182;8.734;2023-06-04T06:21:04;2.53;;;1.27;;
78013;SDS011;67222;50.182;8.734;2023-06-04T06:23:30;3.70;;;1.40;;
78013;SDS011;67222;50.182;8.734;2023-06-04T06:25:55;2.05;;;1.05;;
78013;SDS011;67222;50.182;8.734;2023-06-04T06:28:22;1.75;;;1.08;;
78013;SDS011;67222;50.182;8.734;2023-06-04T06:30:47;2.22;;;1.40;;
78013;SDS011;67222;50.182;8.734;2023-06-04T06:33:13;2.55;;;1.30;;
78013;SDS011;67222;50.182;8.734;2023-06-04T06:35:38;3.70;;;1.13;;
78013;SDS011;67222;50.182;8.734;2023-06-04T06:38:03;2.00;;;1.00;;
78013;SDS011;67222;50.182;8.734;2023-06-04T06:40:29;2.57;;;1.13;;
78013;SDS011;67222;50.182;8.734;2023-06-04T06:42:55;2.20;;;0.90;;
78013;SDS011;67222;50.182;8.734;2023-06-04T06:45:20;2.53;;;1.13;;
78013;SDS011;67222;50.182;8.734;2023-06-04T06:47:46;2.70;;;1.02;;
78013;SDS011;67222;50.182;8.734;2023-06-04T06:50:11;2.15;;;1.10;;
78013;SDS011;67222;50.182;8.734;2023-06-04T06:52:37;2.97;;;1.30;;
78013;SDS011;67222;50.182;8.734;2023-06-04T06:55:03;2.63;;;0.98;;
78013;SDS011;67222;50.182;8.734;2023-06-04T06:57:29;3.28;;;1.05;;
78013;SDS011;67222;50.182;8.734;2023-06-04T06:59:54;2.25;;;1.20;;
78013;SDS011;67222;50.182;8.734;2023-06-04T07:02:19;2.90;;;1.15;;
78013;SDS011;67222;50.182;8.734;2023-06-04T07:04:45;2.10;;;1.00;;
78013;SDS011;67222;50.182;8.734;2023-06-04T07:07:10;2.43;;;1.00;;
78013;SDS011;67222;50.182;8.734;2023-06-04T07:09:35;2.20;;;0.83;;
78013;SDS011;67222;50.182;8.734;2023-06-04T07:12:01;4.53;;;1.17;;
78013;SDS011;67222;50.182;8.734;2023-06-04T07:14:26;2.43;;;1.13;;
78013;SDS011;67222;50.182;8.734;2023-06-04T07:16:51;2.75;;;1.20;;
78013;SDS011;67222;50.182;8.734;2023-06-04T07:19:17;2.50;;;1.10;;
78013;SDS011;67222;50.182;8.734;2023-06-04T07:21:42;2.55;;;1.00;;
78013;SDS011;67222;50.182;8.734;2023-06-04T07:24:07;1.90;;;1.20;;
78013;SDS011;67222;50.182;8.734;2023-06-04T07:26:33;6.93;;;1.33;;
78013;SDS011;67222;50.182;8.734;2023-06-04T07:28:58;2.60;;;1.08;;
78013;SDS011;67222;50.182;8.734;2023-06-04T07:31:23;2.53;;;0.93;;
78013;SDS011;67222;50.182;8.734;2023-06-04T07:33:49;4.82;;;1.30;;
78013;SDS011;67222;50.182;8.734;2023-06-04T07:36:14;2.50;;;1.10;;
78013;SDS011;67222;50.182;8.734;2023-06-04T07:38:41;2.40;;;1.15;;
78013;SDS011;67222;50.182;8.734;2023-06-04T07:41:06;2.90;;;1.00;;
78013;SDS011;67222;50.182;8.734;2023-06-04T07:43:33;2.72;;;1.45;;
78013;SDS011;67222;50.182;8.734;2023-06-04T07:46:00;1.92;;;1.00;;
78013;SDS011;67222;50.182;8.734;2023-06-04T07:48:25;1.83;;;1.02;;
78013;SDS011;67222;50.182;8.734;2023-06-04T07:50:55;1.92;;;0.70;;
78013;SDS011;67222;50.182;8.734;2023-06-04T07:53:24;3.30;;;1.05;;
78013;SDS011;67222;50.182;8.734;2023-06-04T07:55:50;2.33;;;0.98;;
78013;SDS011;67222;50.182;8.734;2023-06-04T07:58:15;2.75;;;1.40;;
78013;SDS011;67222;50.182;8.734;2023-06-04T08:00:40;2.42;;;0.95;;
78013;SDS011;67222;50.182;8.734;2023-06-04T08:03:06;2.53;;;0.93;;
78013;SDS011;67222;50.182;8.734;2023-06-04T08:05:31;1.93;;;0.90;;
78013;SDS011;67222;50.182;8.734;2023-06-04T08:07:56;2.27;;;0.70;;
78013;SDS011;67222;50.182;8.734;2023-06-04T08:10:21;3.57;;;1.20;;
78013;SDS011;67222;50.182;8.734;2023-06-04T08:12:47;2.50;;;1.33;;
78013;SDS011;67222;50.182;8.734;2023-06-04T08:15:12;2.92;;;1.10;;
78013;SDS011;67222;50.182;8.734;2023-06-04T08:17:37;1.90;;;0.70;;
78013;SDS011;67222;50.182;8.734;2023-06-04T08:20:03;1.80;;;0.80;;
78013;SDS011;67222;50.182;8.734;2023-06-04T08:22:31;2.40;;;0.88;;
78013;SDS011;67222;50.182;8.734;2023-06-04T08:24:56;2.58;;;1.05;;
78013;SDS011;67222;50.182;8.734;2023-06-04T08:27:22;2.25;;;0.90;;
78013;SDS011;67222;50.182;8.734;2023-06-04T08:29:47;2.53;;;1.10;;
78013;SDS011;67222;50.182;8.734;2023-06-04T08:32:13;3.83;;;1.13;;
78013;SDS011;67222;50.182;8.734;2023-06-04T08:34:38;2.70;;;0.88;;
78013;SDS011;67222;50.182;8.734;2023-06-04T08:37:04;2.58;;;1.00;;
78013;SDS011;67222;50.182;8.734;2023-06-04T08:39:30;1.88;;;0.70;;
78013;SDS011;67222;50.182;8.734;2023-06-04T08:41:56;2.75;;;1.25;;
78013;SDS011;67222;50.182;8.734;2023-06-04T08:44:27;2.10;;;1.00;;
78013;SDS011;67222;50.182;8.734;2023-06-04T08:46:53;2.60;;;1.20;;
78013;SDS011;67222;50.182;8.734;2023-06-04T08:49:26;1.80;;;0.90;;
78013;SDS011;67222;50.182;8.734;2023-06-04T08:54:20;3.70;;;0.90;;
78013;SDS011;67222;50.182;8.734;2023-06-04T08:56:46;3.08;;;1.00;;
78013;SDS011;67222;50.182;8.734;2023-06-04T08:59:14;2.03;;;0.93;;
78013;SDS011;67222;50.182;8.734;2023-06-04T09:01:40;5.25;;;1.27;;
78013;SDS011;67222;50.182;8.734;2023-06-04T09:04:09;5.35;;;1.42;;
78013;SDS011;67222;50.182;8.734;2023-06-04T09:06:35;2.10;;;1.05;;
78013;SDS011;67222;50.182;8.734;2023-06-04T09:09:03;2.35;;;1.00;;
78013;SDS011;67222;50.182;8.734;2023-06-04T09:11:51;2.90;;;0.90;;
78013;SDS011;67222;50.182;8.734;2023-06-04T09:14:17;2.67;;;0.82;;
78013;SDS011;67222;50.182;8.734;2023-06-04T09:16:50;1.83;;;0.90;;
78013;SDS011;67222;50.182;8.734;2023-06-04T09:19:16;2.50;;;1.25;;
78013;SDS011;67222;50.182;8.734;2023-06-04T09:21:52;2.03;;;0.90;;
78013;SDS011;67222;50.182;8.734;2023-06-04T09:24:40;3.25;;;0.90;;
78013;SDS011;67222;50.182;8.734;2023-06-04T09:27:24;1.95;;;0.90;;
78013;SDS011;67222;50.182;8.734;2023-06-04T09:29:57;4.47;;;1.10;;
78013;SDS011;67222;50.182;8.734;2023-06-04T09:32:27;2.35;;;0.93;;
78013;SDS011;67222;50.182;8.734;2023-06-04T09:35:10;2.22;;;0.90;;
78013;SDS011;67222;50.182;8.734;2023-06-04T09:37:51;1.70;;;0.90;;
78013;SDS011;67222;50.182;8.734;2023-06-04T09:40:17;2.10;;;1.10;;
78013;SDS011;67222;50.182;8.734;2023-06-04T09:42:46;2.28;;;0.98;;
78013;SDS011;67222;50.182;8.734;2023-06-04T09:45:35;2.65;;;0.90;;
78013;SDS011;67222;50.182;8.734;2023-06-04T09:48:00;2.25;;;0.82;;
78013;SDS011;67222;50.182;8.734;2023-06-04T09:50:27;2.67;;;0.82;;
78013;SDS011;67222;50.182;8.734;2023-06-04T09:52:55;2.33;;;1.00;;
78013;SDS011;67222;50.182;8.734;2023-06-04T09:55:21;4.43;;;1.25;;
78013;SDS011;67222;50.182;8.734;2023-06-04T09:57:48;3.13;;;1.25;;
78013;SDS011;67222;50.182;8.734;2023-06-04T10:00:20;2.75;;;1.10;;
78013;SDS011;67222;50.182;8.734;2023-06-04T10:02:48;2.50;;;1.00;;
78013;SDS011;67222;50.182;8.734;2023-06-04T10:05:14;2.45;;;0.93;;
78013;SDS011;67222;50.182;8.734;2023-06-04T10:07:43;1.90;;;0.80;;
78013;SDS011;67222;50.182;8.734;2023-06-04T10:10:11;3.63;;;0.90;;
78013;SDS011;67222;50.182;8.734;2023-06-04T10:12:41;3.08;;;0.93;;
78013;SDS011;67222;50.182;8.734;2023-06-04T10:15:10;2.03;;;0.90;;
78013;SDS011;67222;50.182;8.734;2023-06-04T10:17:38;2.90;;;0.93;;
78013;SDS011;67222;50.182;8.734;2023-06-04T10:20:04;2.63;;;0.82;;
78013;SDS011;67222;50.182;8.734;2023-06-04T10:22:33;3.65;;;1.20;;
78013;SDS011;67222;50.182;8.734;2023-06-04T10:24:59;3.50;;;1.20;;
78013;SDS011;67222;50.182;8.734;2023-06-04T10:27:25;4.60;;;1.45;;
78013;SDS011;67222;50.182;8.734;2023-06-04T10:29:51;2.75;;;0.80;;
78013;SDS011;67222;50.182;8.734;2023-06-04T10:32:18;1.63;;;0.85;;
78013;SDS011;67222;50.182;8.734;2023-06-04T10:34:44;2.40;;;0.90;;
78013;SDS011;67222;50.182;8.734;2023-06-04T10:37:24;2.63;;;1.00;;
78013;SDS011;67222;50.182;8.734;2023-06-04T10:39:51;3.13;;;1.20;;
78013;SDS011;67222;50.182;8.734;2023-06-04T10:42:17;2.22;;;1.08;;
78013;SDS011;67222;50.182;8.734;2023-06-04T10:44:48;2.47;;;1.00;;
78013;SDS011;67222;50.182;8.734;2023-06-04T10:47:33;2.45;;;0.80;;
78013;SDS011;67222;50.182;8.734;2023-06-04T10:50:08;3.03;;;1.10;;
78013;SDS011;67222;50.182;8.734;2023-06-04T10:52:38;2.90;;;0.90;;
78013;SDS011;67222;50.182;8.734;2023-06-04T10:55:15;2.35;;;0.93;;
78013;SDS011;67222;50.182;8.734;2023-06-04T10:57:40;1.77;;;0.90;;
78013;SDS011;67222;50.182;8.734;2023-06-04T11:00:16;2.45;;;0.90;;
78013;SDS011;67222;50.182;8.734;2023-06-04T11:02:52;2.50;;;0.90;;
78013;SDS011;67222;50.182;8.734;2023-06-04T11:05:33;2.00;;;1.00;;
78013;SDS011;67222;50.182;8.734;2023-06-04T11:07:59;3.10;;;1.10;;
78013;SDS011;67222;50.182;8.734;2023-06-04T11:10:30;2.38;;;0.93;;
78013;SDS011;67222;50.182;8.734;2023-06-04T11:12:58;2.30;;;1.05;;
78013;SDS011;67222;50.182;8.734;2023-06-04T11:15:24;2.20;;;1.00;;
78013;SDS011;67222;50.182;8.734;2023-06-04T11:17:52;2.30;;;1.00;;
78013;SDS011;67222;50.182;8.734;2023-06-04T11:20:23;3.03;;;1.00;;
78013;SDS011;67222;50.182;8.734;2023-06-04T11:22:53;2.67;;;1.00;;
78013;SDS011;67222;50.182;8.734;2023-06-04T11:25:23;2.63;;;1.35;;
78013;SDS011;67222;50.182;8.734;2023-06-04T11:27:51;2.17;;;0.88;;
78013;SDS011;67222;50.182;8.734;2023-06-04T11:30:17;1.77;;;0.80;;
78013;SDS011;67222;50.182;8.734;2023-06-04T11:32:43;7.53;;;1.20;;
78013;SDS011;67222;50.182;8.734;2023-06-04T11:35:08;4.07;;;1.20;;
78013;SDS011;67222;50.182;8.734;2023-06-04T11:37:36;2.90;;;1.15;;
78013;SDS011;67222;50.182;8.734;2023-06-04T11:40:01;2.13;;;1.00;;
78013;SDS011;67222;50.182;8.734;2023-06-04T11:44:55;2.83;;;1.23;;
78013;SDS011;67222;50.182;8.734;2023-06-04T11:47:21;3.90;;;1.02;;
78013;SDS011;67222;50.182;8.734;2023-06-04T11:49:46;4.95;;;1.10;;
78013;SDS011;67222;50.182;8.734;2023-06-04T11:52:13;2.50;;;1.40;;
78013;SDS011;67222;50.182;8.734;2023-06-04T11:54:39;1.92;;;1.02;;
78013;SDS011;67222;50.182;8.734;2023-06-04T11:57:05;4.65;;;1.80;;
78013;SDS011;67222;50.182;8.734;2023-06-04T11:59:30;2.78;;;1.30;;
78013;SDS011;67222;50.182;8.734;2023-06-04T12:01:56;2.38;;;1.00;;
78013;SDS011;67222;50.182;8.734;2023-06-04T12:04:22;2.47;;;1.05;;
78013;SDS011;67222;50.182;8.734;2023-06-04T12:06:54;3.13;;;1.30;;
78013;SDS011;67222;50.182;8.734;2023-06-04T12:09:27;2.95;;;1.20;;
78013;SDS011;67222;50.182;8.734;2023-06-04T12:12:00;2.33;;;1.00;;
78013;SDS011;67222;50.182;8.734;2023-06-04T12:14:27;2.55;;;1.10;;
78013;SDS011;67222;50.182;8.734;2023-06-04T12:16:59;2.50;;;1.17;;
78013;SDS011;67222;50.182;8.734;2023-06-04T12:19:26;2.40;;;0.95;;
78013;SDS011;67222;50.182;8.734;2023-06-04T12:21:58;2.05;;;1.00;;
78013;SDS011;67222;50.182;8.734;2023-06-04T12:24:27;2.50;;;1.10;;
78013;SDS011;67222;50.182;8.734;2023-06-04T12:29:29;1.77;;;0.90;;
78013;SDS011;67222;50.182;8.734;2023-06-04T12:32:01;3.28;;;1.20;;
78013;SDS011;67222;50.182;8.734;2023-06-04T12:34:33;2.38;;;1.10;;
78013;SDS011;67222;50.182;8.734;2023-06-04T12:37:01;2.08;;;1.02;;
78013;SDS011;67222;50.182;8.734;2023-06-04T12:39:34;3.10;;;1.40;;
78013;SDS011;67222;50.182;8.734;2023-06-04T12:42:01;1.75;;;0.95;;
78013;SDS011;67222;50.182;8.734;2023-06-04T12:44:36;2.38;;;1.13;;
78013;SDS011;67222;50.182;8.734;2023-06-04T12:47:03;2.67;;;1.05;;
78013;SDS011;67222;50.182;8.734;2023-06-04T12:49:28;2.33;;;1.10;;
78013;SDS011;67222;50.182;8.734;2023-06-04T12:51:54;2.67;;;1.30;;
78013;SDS011;67222;50.182;8.734;2023-06-04T12:54:19;3.83;;;1.15;;
78013;SDS011;67222;50.182;8.734;2023-06-04T12:56:44;2.20;;;0.90;;
78013;SDS011;67222;50.182;8.734;2023-06-04T12:59:10;2.05;;;1.10;;
78013;SDS011;67222;50.182;8.734;2023-06-04T13:01:36;2.65;;;1.00;;
78013;SDS011;67222;50.182;8.734;2023-06-04T13:04:02;2.28;;;1.20;;
78013;SDS011;67222;50.182;8.734;2023-06-04T13:06:28;2.78;;;1.40;;
78013;SDS011;67222;50.182;8.734;2023-06-04T13:08:53;2.95;;;1.08;;
78013;SDS011;67222;50.182;8.734;2023-06-04T13:11:18;2.20;;;1.17;;
78013;SDS011;67222;50.182;8.734;2023-06-04T13:13:44;2.17;;;1.13;;
78013;SDS011;67222;50.182;8.734;2023-06-04T13:16:09;1.50;;;0.90;;
78013;SDS011;67222;50.182;8.734;2023-06-04T13:18:34;5.53;;;1.30;;
78013;SDS011;67222;50.182;8.734;2023-06-04T13:21:00;2.85;;;1.10;;
78013;SDS011;67222;50.182;8.734;2023-06-04T13:23:26;2.63;;;1.00;;
78013;SDS011;67222;50.182;8.734;2023-06-04T13:25:51;3.40;;;1.27;;
78013;SDS011;67222;50.182;8.734;2023-06-04T13:28:16;2.37;;;1.00;;
78013;SDS011;67222;50.182;8.734;2023-06-04T13:30:42;2.20;;;0.98;;
78013;SDS011;67222;50.182;8.734;2023-06-04T13:33:08;3.25;;;1.13;;
78013;SDS011;67222;50.182;8.734;2023-06-04T13:35:33;2.07;;;1.20;;
78013;SDS011;67222;50.182;8.734;2023-06-04T13:37:59;2.78;;;1.20;;
78013;SDS011;67222;50.182;8.734;2023-06-04T13:40:25;2.47;;;1.35;;
78013;SDS011;67222;50.182;8.734;2023-06-04T13:42:50;4.13;;;1.10;;
78013;SDS011;67222;50.182;8.734;2023-06-04T13:45:15;2.23;;;1.03;;
78013;SDS011;67222;50.182;8.734;2023-06-04T13:47:42;3.78;;;1.20;;
78013;SDS011;67222;50.182;8.734;2023-06-04T13:50:07;3.17;;;1.05;;
78013;SDS011;67222;50.182;8.734;2023-06-04T13:52:33;2.75;;;1.08;;
78013;SDS011;67222;50.182;8.734;2023-06-04T13:54:58;1.98;;;1.30;;
78013;SDS011;67222;50.182;8.734;2023-06-04T13:57:24;2.43;;;1.00;;
78013;SDS011;67222;50.182;8.734;2023-06-04T13:59:49;3.22;;;1.10;;
78013;SDS011;67222;50.182;8.734;2023-06-04T14:02:15;2.42;;;1.10;;
78013;SDS011;67222;50.182;8.734;2023-06-04T14:04:40;1.93;;;1.00;;
78013;SDS011;67222;50.182;8.734;2023-06-04T14:07:05;3.75;;;1.20;;
78013;SDS011;67222;50.182;8.734;2023-06-04T14:09:31;2.17;;;1.10;;
78013;SDS011;67222;50.182;8.734;2023-06-04T14:11:56;2.20;;;1.27;;
78013;SDS011;67222;50.182;8.734;2023-06-04T14:14:21;2.87;;;1.23;;
78013;SDS011;67222;50.182;8.734;2023-06-04T14:16:47;2.30;;;1.30;;
78013;SDS011;67222;50.182;8.734;2023-06-04T14:19:13;3.42;;;1.23;;
78013;SDS011;67222;50.182;8.734;2023-06-04T14:21:38;3.00;;;1.52;;
78013;SDS011;67222;50.182;8.734;2023-06-04T14:24:04;3.42;;;1.35;;
78013;SDS011;67222;50.182;8.734;2023-06-04T14:26:30;2.17;;;1.25;;
78013;SDS011;67222;50.182;8.734;2023-06-04T14:28:56;3.28;;;1.38;;
78013;SDS011;67222;50.182;8.734;2023-06-04T14:31:21;2.70;;;1.60;;
78013;SDS011;67222;50.182;8.734;2023-06-04T14:33:47;2.28;;;1.40;;
78013;SDS011;67222;50.182;8.734;2023-06-04T14:36:12;3.13;;;1.67;;
78013;SDS011;67222;50.182;8.734;2023-06-04T14:38:38;2.80;;;1.50;;
78013;SDS011;67222;50.182;8.734;2023-06-04T14:41:03;2.63;;;1.67;;
78013;SDS011;67222;50.182;8.734;2023-06-04T14:43:29;2.90;;;1.30;;
78013;SDS011;67222;50.182;8.734;2023-06-04T14:45:55;3.55;;;1.50;;
78013;SDS011;67222;50.182;8.734;2023-06-04T14:48:20;2.87;;;1.50;;
78013;SDS011;67222;50.182;8.734;2023-06-04T14:50:46;4.43;;;1.83;;
78013;SDS011;67222;50.182;8.734;2023-06-04T14:53:18;2.75;;;1.80;;
78013;SDS011;67222;50.182;8.734;2023-06-04T14:55:44;2.75;;;2.00;;
78013;SDS011;67222;50.182;8.734;2023-06-04T14:58:09;3.63;;;2.00;;
78013;SDS011;67222;50.182;8.734;2023-06-04T15:00:36;5.45;;;2.03;;
78013;SDS011;67222;50.182;8.734;2023-06-04T15:03:01;3.65;;;1.90;;
78013;SDS011;67222;50.182;8.734;2023-06-04T15:05:26;3.85;;;1.90;;
78013;SDS011;67222;50.182;8.734;2023-06-04T15:07:52;3.42;;;1.80;;
78013;SDS011;67222;50.182;8.734;2023-06-04T15:10:17;3.00;;;2.30;;
78013;SDS011;67222;50.182;8.734;2023-06-04T15:12:42;4.47;;;2.27;;
78013;SDS011;67222;50.182;8.734;2023-06-04T15:15:08;3.65;;;2.25;;
78013;SDS011;67222;50.182;8.734;2023-06-04T15:17:34;3.63;;;2.60;;
78013;SDS011;67222;50.182;8.734;2023-06-04T15:20:00;8.07;;;4.78;;
78013;SDS011;67222;50.182;8.734;2023-06-04T15:22:26;3.65;;;2.72;;
78013;SDS011;67222;50.182;8.734;2023-06-04T15:24:52;3.97;;;2.40;;
78013;SDS011;67222;50.182;8.734;2023-06-04T15:27:17;3.65;;;2.40;;
78013;SDS011;67222;50.182;8.734;2023-06-04T15:29:43;3.72;;;2.40;;
78013;SDS011;67222;50.182;8.734;2023-06-04T15:32:08;9.20;;;2.90;;
78013;SDS011;67222;50.182;8.734;2023-06-04T15:34:34;4.57;;;2.42;;
78013;SDS011;67222;50.182;8.734;2023-06-04T15:36:59;6.30;;;2.87;;
78013;SDS011;67222;50.182;8.734;2023-06-04T15:39:24;4.55;;;2.50;;
78013;SDS011;67222;50.182;8.734;2023-06-04T15:41:49;4.17;;;3.07;;
78013;SDS011;67222;50.182;8.734;2023-06-04T15:44:15;4.87;;;2.67;;
78013;SDS011;67222;50.182;8.734;2023-06-04T15:46:40;4.03;;;2.73;;
78013;SDS011;67222;50.182;8.734;2023-06-04T15:49:05;4.78;;;3.00;;
78013;SDS011;67222;50.182;8.734;2023-06-04T15:51:34;5.00;;;3.55;;
78013;SDS011;67222;50.182;8.734;2023-06-04T15:54:01;4.55;;;3.50;;
78013;SDS011;67222;50.182;8.734;2023-06-04T15:56:27;4.57;;;3.08;;
78013;SDS011;67222;50.182;8.734;2023-06-04T15:58:52;4.30;;;3.00;;
78013;SDS011;67222;50.182;8.734;2023-06-04T16:01:18;11.73;;;7.23;;
78013;SDS011;67222;50.182;8.734;2023-06-04T16:03:43;12.73;;;9.80;;
78013;SDS011;67222;50.182;8.734;2023-06-04T16:06:09;9.48;;;8.30;;
78013;SDS011;67222;50.182;8.734;2023-06-04T16:08:35;7.47;;;5.20;;
78013;SDS011;67222;50.182;8.734;2023-06-04T16:11:02;4.82;;;3.67;;
78013;SDS011;67222;50.182;8.734;2023-06-04T16:13:27;5.50;;;3.83;;
78013;SDS011;67222;50.182;8.734;2023-06-04T16:15:53;4.47;;;3.25;;
78013;SDS011;67222;50.182;8.734;2023-06-04T16:18:20;5.10;;;3.75;;
78013;SDS011;67222;50.182;8.734;2023-06-04T16:20:45;6.00;;;3.63;;
78013;SDS011;67222;50.182;8.734;2023-06-04T16:23:11;8.82;;;6.22;;
78013;SDS011;67222;50.182;8.734;2023-06-04T16:25:36;12.07;;;7.10;;
78013;SDS011;67222;50.182;8.734;2023-06-04T16:28:02;7.55;;;4.95;;
78013;SDS011;67222;50.182;8.734;2023-06-04T16:30:27;5.75;;;5.25;;
78013;SDS011;67222;50.182;8.734;2023-06-04T16:32:53;7.70;;;5.80;;
78013;SDS011;67222;50.182;8.734;2023-06-04T16:35:18;5.30;;;3.57;;
78013;SDS011;67222;50.182;8.734;2023-06-04T16:37:43;3.93;;;3.20;;
78013;SDS011;67222;50.182;8.734;2023-06-04T16:40:09;8.10;;;3.53;;
78013;SDS011;67222;50.182;8.734;2023-06-04T16:42:35;17.58;;;4.25;;
78013;SDS011;67222;50.182;8.734;2023-06-04T16:45:01;28.50;;;4.80;;
78013;SDS011;67222;50.182;8.734;2023-06-04T16:47:27;6.20;;;2.28;;
78013;SDS011;67222;50.182;8.734;2023-06-04T16:49:52;6.25;;;2.50;;
78013;SDS011;67222;50.182;8.734;2023-06-04T16:52:19;6.32;;;2.10;;
78013;SDS011;67222;50.182;8.734;2023-06-04T16:54:45;4.75;;;2.10;;
78013;SDS011;67222;50.182;8.734;2023-06-04T16:57:11;5.10;;;2.17;;
78013;SDS011;67222;50.182;8.734;2023-06-04T16:59:36;3.83;;;1.60;;
78013;SDS011;67222;50.182;8.734;2023-06-04T17:02:03;2.87;;;2.00;;
78013;SDS011;67222;50.182;8.734;2023-06-04T17:04:28;2.92;;;1.70;;
78013;SDS011;67222;50.182;8.734;2023-06-04T17:06:54;3.63;;;1.70;;
78013;SDS011;67222;50.182;8.734;2023-06-04T17:09:21;3.42;;;1.70;;
78013;SDS011;67222;50.182;8.734;2023-06-04T17:11:46;4.07;;;1.65;;
78013;SDS011;67222;50.182;8.734;2023-06-04T17:14:12;5.80;;;1.83;;
78013;SDS011;67222;50.182;8.734;2023-06-04T17:16:37;4.63;;;1.87;;
78013;SDS011;67222;50.182;8.734;2023-06-04T17:19:02;3.03;;;1.60;;
78013;SDS011;67222;50.182;8.734;2023-06-04T17:21:28;5.57;;;1.73;;
78013;SDS011;67222;50.182;8.734;2023-06-04T17:23:54;3.83;;;1.52;;
78013;SDS011;67222;50.182;8.734;2023-06-04T17:26:22;4.55;;;1.30;;
78013;SDS011;67222;50.182;8.734;2023-06-04T17:28:47;2.95;;;1.40;;
78013;SDS011;67222;50.182;8.734;2023-06-04T17:31:12;3.85;;;1.83;;
78013;SDS011;67222;50.182;8.734;2023-06-04T17:33:42;4.35;;;1.60;;
78013;SDS011;67222;50.182;8.734;2023-06-04T17:36:07;4.10;;;1.50;;
78013;SDS011;67222;50.182;8.734;2023-06-04T17:38:32;3.20;;;1.30;;
78013;SDS011;67222;50.182;8.734;2023-06-04T17:40:58;3.27;;;1.40;;
78013;SDS011;67222;50.182;8.734;2023-06-04T17:43:23;3.43;;;1.33;;
78013;SDS011;67222;50.182;8.734;2023-06-04T17:45:48;3.13;;;1.42;;
78013;SDS011;67222;50.182;8.734;2023-06-04T17:48:13;3.43;;;1.37;;
78013;SDS011;67222;50.182;8.734;2023-06-04T17:50:39;3.53;;;1.60;;
78013;SDS011;67222;50.182;8.734;2023-06-04T17:53:04;16.37;;;2.90;;
78013;SDS011;67222;50.182;8.734;2023-06-04T17:55:29;2.88;;;1.35;;
78013;SDS011;67222;50.182;8.734;2023-06-04T17:57:55;4.63;;;1.63;;
78013;SDS011;67222;50.182;8.734;2023-06-04T18:00:21;2.90;;;1.30;;
78013;SDS011;67222;50.182;8.734;2023-06-04T18:02:46;2.67;;;1.60;;
78013;SDS011;67222;50.182;8.734;2023-06-04T18:05:12;3.67;;;1.52;;
78013;SDS011;67222;50.182;8.734;2023-06-04T18:07:37;3.78;;;1.60;;
78013;SDS011;67222;50.182;8.734;2023-06-04T18:10:03;3.87;;;1.60;;
78013;SDS011;67222;50.182;8.734;2023-06-04T18:12:30;2.45;;;1.30;;
78013;SDS011;67222;50.182;8.734;2023-06-04T18:14:55;3.83;;;1.57;;
78013;SDS011;67222;50.182;8.734;2023-06-04T18:17:20;2.88;;;1.67;;
78013;SDS011;67222;50.182;8.734;2023-06-04T18:19:46;3.90;;;1.80;;
78013;SDS011;67222;50.182;8.734;2023-06-04T18:22:11;4.53;;;1.27;;
78013;SDS011;67222;50.182;8.734;2023-06-04T18:24:36;5.87;;;1.80;;
78013;SDS011;67222;50.182;8.734;2023-06-04T18:27:05;3.17;;;1.38;;
78013;SDS011;67222;50.182;8.734;2023-06-04T18:29:30;3.75;;;1.70;;
78013;SDS011;67222;50.182;8.734;2023-06-04T18:31:56;3.33;;;1.48;;
78013;SDS011;67222;50.182;8.734;2023-06-04T18:34:22;3.22;;;1.35;;
78013;SDS011;67222;50.182;8.734;2023-06-04T18:36:47;2.58;;;1.27;;
78013;SDS011;67222;50.182;8.734;2023-06-04T18:39:18;2.50;;;1.30;;
78013;SDS011;67222;50.182;8.734;2023-06-04T18:41:48;2.38;;;1.08;;
78013;SDS011;67222;50.182;8.734;2023-06-04T18:46:51;2.72;;;1.40;;
78013;SDS011;67222;50.182;8.734;2023-06-04T18:49:16;5.53;;;1.43;;
78013;SDS011;67222;50.182;8.734;2023-06-04T18:51:42;3.33;;;1.25;;
78013;SDS011;67222;50.182;8.734;2023-06-04T18:54:07;2.65;;;1.20;;
78013;SDS011;67222;50.182;8.734;2023-06-04T18:56:33;4.65;;;1.33;;
78013;SDS011;67222;50.182;8.734;2023-06-04T18:58:59;2.63;;;1.35;;
78013;SDS011;67222;50.182;8.734;2023-06-04T19:01:25;2.77;;;1.07;;
78013;SDS011;67222;50.182;8.734;2023-06-04T19:03:51;2.97;;;1.08;;
78013;SDS011;67222;50.182;8.734;2023-06-04T19:06:16;2.73;;;1.07;;
78013;SDS011;67222;50.182;8.734;2023-06-04T19:08:42;2.30;;;1.02;;
78013;SDS011;67222;50.182;8.734;2023-06-04T19:11:07;1.40;;;0.87;;
78013;SDS011;67222;50.182;8.734;2023-06-04T19:13:33;2.97;;;1.20;;
78013;SDS011;67222;50.182;8.734;2023-06-04T19:15:58;4.30;;;1.58;;
78013;SDS011;67222;50.182;8.734;2023-06-04T19:18:23;2.17;;;1.10;;
78013;SDS011;67222;50.182;8.734;2023-06-04T19:20:48;3.10;;;1.13;;
78013;SDS011;67222;50.182;8.734;2023-06-04T19:23:14;2.45;;;1.05;;
78013;SDS011;67222;50.182;8.734;2023-06-04T19:25:39;2.85;;;1.00;;
78013;SDS011;67222;50.182;8.734;2023-06-04T19:28:05;2.72;;;1.08;;
78013;SDS011;67222;50.182;8.734;2023-06-04T19:30:31;2.25;;;1.15;;
78013;SDS011;67222;50.182;8.734;2023-06-04T19:32:56;2.60;;;1.58;;
78013;SDS011;67222;50.182;8.734;2023-06-04T19:35:22;2.35;;;1.10;;
78013;SDS011;67222;50.182;8.734;2023-06-04T19:37:47;2.30;;;0.90;;
78013;SDS011;67222;50.182;8.734;2023-06-04T19:40:17;2.50;;;0.95;;
78013;SDS011;67222;50.182;8.734;2023-06-04T19:42:42;2.78;;;1.17;;
78013;SDS011;67222;50.182;8.734;2023-06-04T19:45:08;3.25;;;1.10;;
78013;SDS011;67222;50.182;8.734;2023-06-04T19:47:34;2.50;;;1.20;;
78013;SDS011;67222;50.182;8.734;2023-06-04T19:50:00;2.17;;;1.15;;
78013;SDS011;67222;50.182;8.734;2023-06-04T19:52:25;2.17;;;0.90;;
78013;SDS011;67222;50.182;8.734;2023-06-04T19:54:51;3.08;;;1.27;;
78013;SDS011;67222;50.182;8.734;2023-06-04T19:57:17;2.10;;;1.10;;
78013;SDS011;67222;50.182;8.734;2023-06-04T19:59:42;2.40;;;1.10;;
78013;SDS011;67222;50.182;8.734;2023-06-04T20:02:07;3.83;;;1.02;;
78013;SDS011;67222;50.182;8.734;2023-06-04T20:04:33;3.75;;;1.00;;
78013;SDS011;67222;50.182;8.734;2023-06-04T20:07:02;3.30;;;1.10;;
78013;SDS011;67222;50.182;8.734;2023-06-04T20:09:27;2.45;;;1.23;;
78013;SDS011;67222;50.182;8.734;2023-06-04T20:11:53;2.27;;;1.03;;
78013;SDS011;67222;50.182;8.734;2023-06-04T20:14:18;2.90;;;1.20;;
78013;SDS011;67222;50.182;8.734;2023-06-04T20:16:43;2.40;;;1.02;;
78013;SDS011;67222;50.182;8.734;2023-06-04T20:19:09;2.13;;;1.08;;
78013;SDS011;67222;50.182;8.734;2023-06-04T20:21:34;3.43;;;1.10;;
78013;SDS011;67222;50.182;8.734;2023-06-04T20:23:59;3.30;;;1.00;;
78013;SDS011;67222;50.182;8.734;2023-06-04T20:26:25;1.93;;;0.87;;